createdAt,value
2018-05-18T00:00:44.936Z,87.45
2018-05-18T00:01:44.972Z,87.54
2018-05-18T00:02:44.940Z,87.64
2018-05-18T00:03:44.989Z,88.40
2018-05-18T00:04:44.982Z,88.69
2018-05-18T00:05:44.939Z,88.12
2018-05-18T00:06:44.961Z,88.31
2018-05-18T00:07:44.949Z,87.93
2018-05-18T00:13:21.679Z,88.40
2018-05-18T00:14:21.650Z,88.12
2018-05-18T00:15:24.013Z,88.40
2018-05-18T00:16:23.020Z,88.12
2018-05-18T00:17:23.016Z,88.21
2018-05-18T00:18:23.521Z,88.21
2018-05-18T00:19:23.536Z,87.93
2018-05-18T00:20:21.683Z,88.12
2018-05-18T00:21:21.701Z,88.21
2018-05-18T00:22:23.532Z,88.31
2018-05-18T00:23:21.666Z,87.93
2018-05-18T00:24:21.700Z,87.83
2018-05-18T00:25:21.712Z,88.21
2018-05-18T00:26:23.016Z,88.78
2018-05-18T00:27:26.034Z,89.07
2018-05-18T00:28:24.026Z,88.98
2018-05-18T00:29:24.519Z,88.69
2018-05-18T00:30:23.537Z,88.98
2018-05-18T00:31:21.702Z,88.78
2018-05-18T00:32:21.704Z,88.69
2018-05-18T00:33:21.730Z,88.02
2018-05-18T00:34:22.529Z,88.21
2018-05-18T00:37:55.281Z,87.93
2018-05-18T00:39:14.959Z,88.21
2018-05-18T00:39:54.053Z,88.40
2018-05-18T00:40:53.935Z,88.69
2018-05-18T00:41:53.946Z,88.02
2018-05-18T00:42:53.952Z,87.83
2018-05-18T00:43:53.955Z,88.12
2018-05-18T00:44:54.048Z,87.74
2018-05-18T00:45:53.962Z,87.45
2018-05-18T00:46:53.987Z,87.93
2018-05-18T00:47:53.964Z,88.69
2018-05-18T00:48:53.983Z,88.36
2018-05-18T00:49:54.050Z,88.17
2018-05-18T00:50:53.979Z,88.78
2018-05-18T00:51:54.020Z,88.69
2018-05-18T00:52:54.024Z,88.69
2018-05-18T00:53:54.024Z,89.07
2018-05-18T00:54:53.995Z,89.26
2018-05-18T00:55:53.986Z,89.26
2018-05-18T00:56:53.984Z,89.45
2018-05-18T00:57:53.984Z,89.07
2018-05-18T00:58:54.005Z,89.17
2018-05-18T00:59:54.013Z,88.98
2018-05-18T01:00:53.998Z,88.98
2018-05-18T01:01:54.021Z,89.26
2018-05-18T01:02:54.067Z,88.88
2018-05-18T01:03:54.027Z,88.98
2018-05-18T01:04:54.007Z,88.69
2018-05-18T01:05:53.990Z,88.78
2018-05-18T01:06:54.059Z,89.07
2018-05-18T01:07:54.008Z,89.17
2018-05-18T01:08:53.987Z,88.69
2018-05-18T01:09:53.996Z,88.69
2018-05-18T01:10:53.994Z,88.98
2018-05-18T01:11:54.029Z,88.21
2018-05-18T01:12:54.798Z,88.69
2018-05-18T01:13:54.014Z,89.07
2018-05-18T01:14:54.033Z,89.36
2018-05-18T01:15:54.030Z,89.07
2018-05-18T01:16:54.024Z,89.26
2018-05-18T01:17:54.125Z,88.98
2018-05-18T01:18:54.042Z,89.26
2018-05-18T01:19:54.038Z,88.78
2018-05-18T01:20:54.051Z,88.93
2018-05-18T01:21:54.036Z,89.17
2018-05-18T01:22:54.011Z,88.98
2018-05-18T01:23:54.018Z,88.88
2018-05-18T01:24:54.036Z,88.69
2018-05-18T01:25:54.014Z,89.07
2018-05-18T01:26:54.017Z,88.55
2018-05-18T01:27:54.083Z,88.78
2018-05-18T01:28:54.053Z,88.64
2018-05-18T01:29:54.027Z,88.93
2018-05-18T01:30:54.121Z,87.98
2018-05-18T01:31:54.076Z,88.45
2018-05-18T01:32:54.058Z,88.26
2018-05-18T01:33:54.089Z,88.26
2018-05-18T01:34:54.033Z,88.21
2018-05-18T01:35:54.041Z,88.36
2018-05-18T01:36:54.061Z,88.55
2018-05-18T01:37:54.063Z,88.45
2018-05-18T01:38:54.075Z,88.17
2018-05-18T01:39:54.056Z,88.64
2018-05-18T01:40:54.069Z,88.07
2018-05-18T01:41:54.048Z,88.26
2018-05-18T01:42:54.060Z,88.07
2018-05-18T01:43:54.078Z,88.17
2018-05-18T01:44:54.066Z,87.60
2018-05-18T01:45:54.082Z,88.07
2018-05-18T01:46:54.059Z,88.17
2018-05-18T01:47:54.080Z,88.93
2018-05-18T01:48:54.126Z,88.55
2018-05-18T01:49:54.057Z,88.74
2018-05-18T01:50:54.078Z,88.64
2018-05-18T01:51:54.060Z,88.64
2018-05-18T01:52:54.072Z,88.26
2018-05-18T01:53:54.081Z,88.07
2018-05-18T01:54:54.122Z,88.07
2018-05-18T01:55:54.079Z,88.93
2018-05-18T01:56:54.145Z,87.98
2018-05-18T01:57:54.087Z,88.45
2018-05-18T01:58:54.094Z,88.84
2018-05-18T01:59:54.100Z,88.26
2018-05-18T02:00:54.085Z,88.17
2018-05-18T02:01:54.096Z,89.12
2018-05-18T02:02:54.072Z,89.40
2018-05-18T02:03:54.076Z,88.93
2018-05-18T02:04:54.076Z,89.31
2018-05-18T02:05:54.097Z,89.31
2018-05-18T02:06:54.096Z,88.74
2018-05-18T02:07:54.082Z,88.93
2018-05-18T02:08:54.097Z,88.26
2018-05-18T02:09:54.807Z,88.84
2018-05-18T02:10:54.142Z,88.07
2018-05-18T02:11:54.105Z,88.64
2018-05-18T02:12:54.109Z,88.74
2018-05-18T02:13:54.183Z,87.98
2018-05-18T02:14:54.097Z,88.74
2018-05-18T02:15:54.144Z,88.36
2018-05-18T02:16:54.117Z,88.74
2018-05-18T02:17:54.123Z,88.93
2018-05-18T02:18:54.119Z,88.74
2018-05-18T02:19:54.121Z,89.31
2018-05-18T02:20:54.099Z,89.12
2018-05-18T02:21:54.109Z,88.64
2018-05-18T02:22:54.113Z,88.74
2018-05-18T02:23:54.113Z,88.74
2018-05-18T02:24:54.122Z,88.93
2018-05-18T02:25:54.125Z,88.84
2018-05-18T02:26:54.109Z,88.64
2018-05-18T02:27:54.117Z,88.55
2018-05-18T02:28:54.131Z,89.03
2018-05-18T02:29:54.163Z,89.31
2018-05-18T02:30:54.126Z,89.22
2018-05-18T02:31:54.132Z,89.31
2018-05-18T02:32:54.125Z,88.55
2018-05-18T02:33:54.143Z,88.64
2018-05-18T02:34:54.131Z,88.45
2018-05-18T02:35:54.178Z,88.64
2018-05-18T02:36:54.141Z,89.03
2018-05-18T02:37:54.204Z,89.31
2018-05-18T02:38:54.148Z,89.22
2018-05-18T02:39:54.158Z,89.12
2018-05-18T02:40:54.136Z,88.84
2018-05-18T02:41:54.188Z,88.74
2018-05-18T02:42:54.166Z,89.79
2018-05-18T02:43:54.126Z,89.79
2018-05-18T02:44:54.199Z,89.40
2018-05-18T02:45:54.215Z,89.50
2018-05-18T02:46:54.148Z,89.22
2018-05-18T02:47:54.136Z,89.31
2018-05-18T02:48:54.174Z,89.45
2018-05-18T02:49:54.134Z,89.12
2018-05-18T02:50:54.826Z,88.93
2018-05-18T02:51:54.142Z,88.84
2018-05-18T02:52:54.141Z,88.55
2018-05-18T02:53:54.157Z,89.12
2018-05-18T02:54:54.163Z,88.74
2018-05-18T02:55:54.167Z,88.55
2018-05-18T02:56:54.197Z,89.22
2018-05-18T02:57:54.150Z,89.40
2018-05-18T02:58:54.173Z,89.50
2018-05-18T02:59:54.175Z,88.74
2018-05-18T03:00:54.194Z,88.78
2018-05-18T03:01:54.211Z,89.26
2018-05-18T03:02:54.150Z,88.59
2018-05-18T03:03:54.166Z,88.64
2018-05-18T03:04:54.236Z,88.45
2018-05-18T03:05:54.162Z,88.55
2018-05-18T03:06:54.209Z,88.84
2018-05-18T03:07:54.173Z,88.84
2018-05-18T03:08:54.305Z,88.07
2018-05-18T03:09:54.257Z,87.98
2018-05-18T03:10:54.247Z,88.45
2018-05-18T03:11:54.209Z,87.79
2018-05-18T03:12:54.187Z,87.98
2018-05-18T03:13:54.201Z,87.69
2018-05-18T03:14:54.219Z,87.17
2018-05-18T03:15:54.176Z,86.69
2018-05-18T03:16:54.246Z,86.60
2018-05-18T03:17:54.222Z,85.93
2018-05-18T03:18:54.230Z,86.32
2018-05-18T03:19:54.197Z,86.98
2018-05-18T03:20:54.212Z,86.98
2018-05-18T03:21:54.195Z,86.83
2018-05-18T03:22:54.188Z,86.69
2018-05-18T03:23:54.209Z,86.51
2018-05-18T03:24:54.199Z,86.79
2018-05-18T03:25:54.199Z,85.93
2018-05-18T03:26:54.214Z,86.45
2018-05-18T03:27:54.237Z,86.03
2018-05-18T03:28:54.216Z,86.26
2018-05-18T03:29:54.199Z,86.16
2018-05-18T03:30:54.223Z,86.36
2018-05-18T03:31:54.232Z,85.41
2018-05-18T03:32:54.222Z,85.41
2018-05-18T03:33:54.232Z,85.41
2018-05-18T03:34:54.223Z,85.41
2018-05-18T03:35:54.225Z,85.02
2018-05-18T03:36:54.249Z,84.92
2018-05-18T03:37:54.236Z,85.64
2018-05-18T03:38:54.234Z,85.08
2018-05-18T03:39:54.207Z,85.60
2018-05-18T03:40:54.282Z,84.83
2018-05-18T03:41:54.229Z,85.41
2018-05-18T03:42:54.215Z,84.83
2018-05-18T03:43:54.225Z,85.41
2018-05-18T03:44:54.237Z,85.12
2018-05-18T03:45:54.225Z,84.92
2018-05-18T03:46:54.238Z,84.07
2018-05-18T03:47:54.281Z,84.07
2018-05-18T03:48:54.275Z,83.88
2018-05-18T03:49:54.318Z,83.97
2018-05-18T03:50:54.227Z,84.45
2018-05-18T03:51:54.245Z,83.78
2018-05-18T03:52:54.243Z,84.83
2018-05-18T03:53:54.248Z,85.02
2018-05-18T03:54:54.273Z,84.92
2018-05-18T03:55:54.236Z,84.83
2018-05-18T03:56:54.353Z,84.74
2018-05-18T03:57:54.231Z,85.02
2018-05-18T03:58:54.261Z,85.02
2018-05-18T03:59:54.254Z,84.92
2018-05-18T04:00:54.258Z,85.31
2018-05-18T04:01:54.237Z,84.83
2018-05-18T04:02:54.232Z,85.41
2018-05-18T04:03:54.244Z,84.83
2018-05-18T04:04:54.251Z,84.26
2018-05-18T04:05:54.277Z,84.26
2018-05-18T04:06:54.243Z,85.21
2018-05-18T04:07:54.339Z,85.02
2018-05-18T04:08:54.272Z,85.02
2018-05-18T04:09:54.285Z,84.83
2018-05-18T04:10:54.839Z,84.74
2018-05-18T04:11:54.259Z,84.92
2018-05-18T04:12:54.282Z,85.12
2018-05-18T04:13:54.245Z,84.92
2018-05-18T04:14:54.259Z,85.50
2018-05-18T04:15:54.340Z,85.21
2018-05-18T04:16:54.852Z,84.64
2018-05-18T04:17:54.265Z,84.16
2018-05-18T04:18:54.289Z,84.26
2018-05-18T04:19:54.293Z,83.69
2018-05-18T04:20:54.263Z,83.59
2018-05-18T04:21:54.276Z,83.31
2018-05-18T04:22:54.280Z,83.21
2018-05-18T04:23:54.289Z,84.16
2018-05-18T04:24:54.324Z,83.59
2018-05-18T04:25:54.277Z,83.97
2018-05-18T04:26:54.282Z,84.16
2018-05-18T04:27:54.283Z,83.40
2018-05-18T04:28:54.388Z,83.50
2018-05-18T04:29:54.290Z,83.31
2018-05-18T04:30:54.298Z,83.12
2018-05-18T04:31:54.273Z,83.02
2018-05-18T04:32:54.278Z,82.45
2018-05-18T04:33:54.274Z,82.35
2018-05-18T04:34:54.284Z,83.02
2018-05-18T04:35:54.293Z,82.83
2018-05-18T04:36:54.283Z,83.02
2018-05-18T04:37:54.284Z,82.83
2018-05-18T04:38:54.297Z,83.21
2018-05-18T04:39:54.318Z,82.45
2018-05-18T04:40:54.287Z,82.35
2018-05-18T04:41:54.390Z,82.35
2018-05-18T04:42:54.295Z,82.45
2018-05-18T04:43:54.301Z,81.78
2018-05-18T04:44:54.324Z,82.35
2018-05-18T04:45:54.306Z,81.97
2018-05-18T04:46:54.317Z,81.68
2018-05-18T04:47:54.356Z,81.78
2018-05-18T04:48:54.356Z,81.55
2018-05-18T04:49:54.846Z,81.74
2018-05-18T04:50:54.355Z,81.97
2018-05-18T04:51:54.301Z,81.46
2018-05-18T04:52:54.300Z,81.55
2018-05-18T04:53:54.328Z,82.50
2018-05-18T04:54:54.311Z,82.12
2018-05-18T04:55:54.336Z,81.40
2018-05-18T04:56:54.323Z,81.68
2018-05-18T04:57:54.301Z,81.78
2018-05-18T04:58:54.430Z,81.49
2018-05-18T04:59:54.342Z,82.17
2018-05-18T05:00:54.333Z,80.73
2018-05-18T05:01:54.354Z,80.92
2018-05-18T05:02:54.348Z,80.64
2018-05-18T05:03:54.337Z,81.30
2018-05-18T05:04:54.849Z,81.97
2018-05-18T05:05:54.326Z,80.44
2018-05-18T05:06:54.327Z,81.02
2018-05-18T05:07:54.332Z,80.73
2018-05-18T05:08:54.454Z,80.83
2018-05-18T05:09:54.854Z,80.54
2018-05-18T05:10:54.323Z,79.97
2018-05-18T05:11:54.334Z,79.30
2018-05-18T05:12:54.386Z,79.44
2018-05-18T05:13:54.340Z,79.40
2018-05-18T05:14:54.351Z,79.49
2018-05-18T05:15:54.354Z,79.91
2018-05-18T05:16:54.399Z,78.86
2018-05-18T05:17:54.443Z,78.20
2018-05-18T05:18:54.428Z,78.10
2018-05-18T05:19:54.347Z,77.82
2018-05-18T05:20:54.404Z,77.87
2018-05-18T05:21:54.340Z,78.58
2018-05-18T05:22:54.441Z,78.10
2018-05-18T05:23:54.397Z,79.06
2018-05-18T05:24:54.365Z,78.67
2018-05-18T05:25:54.381Z,77.44
2018-05-18T05:26:54.367Z,77.20
2018-05-18T05:27:54.388Z,77.25
2018-05-18T05:28:54.367Z,77.62
2018-05-18T05:29:54.370Z,77.44
2018-05-18T05:30:54.453Z,77.25
2018-05-18T05:31:54.388Z,77.25
2018-05-18T05:32:54.393Z,77.91
2018-05-18T05:33:54.439Z,77.72
2018-05-18T05:34:54.438Z,77.25
2018-05-18T05:35:54.870Z,77.44
2018-05-18T05:36:54.396Z,78.10
2018-05-18T05:37:54.453Z,77.91
2018-05-18T05:38:54.860Z,78.30
2018-05-18T05:39:54.417Z,77.44
2018-05-18T05:40:54.377Z,77.25
2018-05-18T05:41:54.432Z,77.62
2018-05-18T05:42:54.403Z,77.34
2018-05-18T05:43:54.428Z,77.28
2018-05-18T05:44:54.386Z,77.28
2018-05-18T05:45:54.424Z,76.14
2018-05-18T05:46:54.417Z,76.23
2018-05-18T05:47:54.407Z,76.46
2018-05-18T05:48:54.484Z,76.23
2018-05-18T05:49:54.400Z,76.08
2018-05-18T05:50:54.435Z,76.08
2018-05-18T05:51:54.435Z,75.42
2018-05-18T05:52:54.451Z,75.22
2018-05-18T05:53:54.558Z,74.27
2018-05-18T05:54:54.425Z,74.27
2018-05-18T05:55:54.431Z,73.50
2018-05-18T05:56:54.461Z,72.83
2018-05-18T05:57:54.419Z,73.69
2018-05-18T05:58:54.470Z,73.98
2018-05-18T05:59:54.411Z,73.79
2018-05-18T06:00:54.491Z,73.12
2018-05-18T06:01:54.438Z,73.22
2018-05-18T06:02:54.462Z,73.03
2018-05-18T06:03:54.408Z,73.88
2018-05-18T06:04:54.523Z,74.55
2018-05-18T06:05:54.413Z,74.55
2018-05-18T06:06:54.489Z,73.79
2018-05-18T06:07:54.441Z,74.08
2018-05-18T06:08:54.454Z,73.98
2018-05-18T06:09:54.432Z,75.51
2018-05-18T06:10:54.620Z,74.37
2018-05-18T06:11:54.644Z,73.79
2018-05-18T06:12:54.663Z,75.42
2018-05-18T06:13:55.369Z,74.37
2018-05-18T06:14:54.492Z,74.08
2018-05-18T06:15:54.516Z,74.23
2018-05-18T06:16:54.712Z,74.17
2018-05-18T06:17:54.504Z,74.74
2018-05-18T06:18:54.457Z,74.27
2018-05-18T06:19:54.481Z,73.03
2018-05-18T06:20:54.512Z,75.35
2018-05-18T06:21:54.644Z,73.25
2018-05-18T06:22:54.531Z,73.63
2018-05-18T06:23:54.583Z,73.63
2018-05-18T06:24:54.532Z,74.40
2018-05-18T06:25:54.658Z,74.40
2018-05-18T06:26:54.627Z,72.49
2018-05-18T06:27:54.636Z,72.30
2018-05-18T06:28:54.526Z,73.83
2018-05-18T06:29:54.630Z,73.00
2018-05-18T06:30:55.004Z,70.87
2018-05-18T06:31:54.543Z,70.81
2018-05-18T06:32:54.584Z,72.33
2018-05-18T06:33:54.546Z,69.89
2018-05-18T06:34:55.722Z,68.04
2018-05-18T06:35:54.615Z,67.27
2018-05-18T06:36:54.564Z,65.55
2018-05-18T06:37:55.812Z,67.72
2018-05-18T06:38:54.995Z,68.10
2018-05-18T06:39:54.565Z,68.29
2018-05-18T06:40:54.487Z,69.44
2018-05-18T06:41:54.600Z,68.93
2018-05-18T06:42:54.617Z,68.23
2018-05-18T06:43:54.519Z,70.23
2018-05-18T06:44:54.720Z,70.90
2018-05-18T06:45:54.556Z,70.96
2018-05-18T06:47:03.262Z,71.53
2018-05-18T06:47:54.526Z,71.72
2018-05-18T06:48:54.609Z,72.39
2018-05-18T06:49:54.599Z,71.72
2018-05-18T06:50:54.623Z,71.25
2018-05-18T06:51:54.878Z,71.44
2018-05-18T06:52:54.595Z,71.44
2018-05-18T06:53:54.615Z,71.15
2018-05-18T06:54:54.604Z,70.96
2018-05-18T06:55:54.571Z,71.57
2018-05-18T06:56:54.675Z,70.61
2018-05-18T06:57:54.638Z,70.33
2018-05-18T06:58:54.592Z,70.33
2018-05-18T06:59:54.572Z,70.17
2018-05-18T07:00:54.526Z,67.08
2018-05-18T07:01:54.534Z,65.36
2018-05-18T07:02:54.561Z,66.57
2018-05-18T07:03:54.718Z,67.72
2018-05-18T07:04:54.576Z,68.16
2018-05-18T07:05:54.613Z,67.59
2018-05-18T07:06:54.586Z,68.93
2018-05-18T07:07:54.568Z,68.26
2018-05-18T07:08:54.594Z,68.26
2018-05-18T07:09:54.615Z,68.35
2018-05-18T07:10:55.385Z,67.97
2018-05-18T07:11:54.872Z,67.88
2018-05-18T07:12:54.625Z,67.78
2018-05-18T07:13:54.691Z,68.07
2018-05-18T07:14:54.618Z,67.78
2018-05-18T07:15:54.703Z,65.62
2018-05-18T07:18:15.926Z,56.14
2018-05-18T07:18:54.738Z,51.38
2018-05-18T07:19:55.724Z,52.69
2018-05-18T07:20:54.735Z,56.19
2018-05-18T07:21:55.495Z,57.92
2018-05-18T07:22:56.220Z,57.70
2018-05-18T07:23:55.075Z,59.68
2018-05-18T07:24:54.716Z,62.04
2018-05-18T07:25:54.706Z,63.48
2018-05-18T07:26:54.795Z,64.02
2018-05-18T07:27:54.716Z,63.99
2018-05-18T07:28:54.912Z,63.51
2018-05-18T07:29:54.715Z,65.42
2018-05-18T07:30:54.685Z,66.19
2018-05-18T07:31:54.780Z,68.07
2018-05-18T07:32:54.737Z,67.18
2018-05-18T07:33:54.845Z,63.67
2018-05-18T07:34:54.759Z,64.12
2018-05-18T07:35:54.885Z,64.56
2018-05-18T07:36:54.786Z,65.68
2018-05-18T07:37:54.676Z,65.52
2018-05-18T07:38:54.781Z,65.11
2018-05-18T07:39:54.692Z,64.15
2018-05-18T07:40:54.811Z,63.45
2018-05-18T07:41:54.709Z,64.12
2018-05-18T07:42:54.685Z,64.12
2018-05-18T07:43:54.749Z,65.23
2018-05-18T07:44:54.873Z,65.23
2018-05-18T07:45:54.796Z,66.00
2018-05-18T07:46:54.838Z,64.69
2018-05-18T07:47:54.844Z,64.12
2018-05-18T07:48:54.784Z,63.73
2018-05-18T07:49:54.762Z,63.73
2018-05-18T07:50:54.890Z,64.31
2018-05-18T07:51:54.771Z,63.54
2018-05-18T07:52:55.687Z,63.73
2018-05-18T07:53:54.806Z,64.69
2018-05-18T07:54:54.867Z,63.54
2018-05-18T07:55:54.804Z,64.75
2018-05-18T07:56:54.720Z,64.79
2018-05-18T07:57:54.905Z,64.79
2018-05-18T07:58:54.770Z,64.75
2018-05-18T07:59:54.744Z,64.59
2018-05-18T08:00:54.856Z,64.22
2018-05-18T08:01:55.005Z,63.54
2018-05-18T08:02:54.859Z,64.98
2018-05-18T08:03:54.851Z,64.15
2018-05-18T08:04:54.856Z,62.90
2018-05-18T08:05:54.877Z,63.16
2018-05-18T08:06:54.790Z,63.86
2018-05-18T08:07:54.790Z,62.46
2018-05-18T08:08:55.708Z,62.26
2018-05-18T08:09:54.792Z,59.61
2018-05-18T08:10:55.711Z,60.35
2018-05-18T08:11:54.782Z,61.11
2018-05-18T08:12:54.821Z,61.11
2018-05-18T08:13:55.551Z,62.23
2018-05-18T08:14:54.767Z,62.81
2018-05-18T08:15:55.119Z,63.19
2018-05-18T08:16:55.949Z,62.26
2018-05-18T08:17:55.366Z,60.09
2018-05-18T08:18:57.044Z,59.30
2018-05-18T08:20:01.925Z,61.50
2018-05-18T08:20:54.863Z,61.98
2018-05-18T08:22:01.750Z,60.96
2018-05-18T08:22:58.992Z,58.14
2018-05-18T08:23:57.141Z,58.20
2018-05-18T08:25:01.550Z,58.30
2018-05-18T08:25:55.169Z,58.59
2018-05-18T08:26:55.075Z,59.61
2018-05-18T08:27:55.364Z,58.75
2018-05-18T08:28:56.008Z,59.27
2018-05-18T08:29:55.160Z,60.25
2018-05-18T08:30:55.068Z,58.20
2018-05-18T08:31:54.938Z,56.29
2018-05-18T08:32:55.829Z,51.34
2018-05-18T08:33:54.824Z,49.94
2018-05-18T08:34:54.935Z,49.63
2018-05-18T08:35:55.527Z,47.80
2018-05-18T08:36:55.043Z,47.22
2018-05-18T08:37:54.966Z,46.86
2018-05-18T08:38:55.779Z,49.17
2018-05-18T08:39:55.261Z,50.08
2018-05-18T08:40:55.014Z,51.47
2018-05-18T08:41:55.084Z,53.36
2018-05-18T08:42:55.307Z,55.86
2018-05-18T08:43:55.444Z,56.34
2018-05-18T08:44:56.525Z,55.77
2018-05-18T08:45:56.518Z,55.12
2018-05-18T08:48:44.994Z,55.89
2018-05-18T08:49:05.228Z,54.93
2018-05-18T08:51:32.970Z,53.83
2018-05-18T08:52:04.624Z,51.35
2018-05-18T08:53:17.662Z,51.84
2018-05-18T08:53:55.224Z,50.73
2018-05-18T08:54:55.106Z,49.79
2018-05-18T08:55:55.259Z,48.30
2018-05-18T08:56:55.159Z,45.24
2018-05-18T08:57:55.074Z,45.36
2018-05-18T08:58:55.097Z,43.62
2018-05-18T08:59:55.183Z,44.12
2018-05-18T09:00:55.215Z,45.21
2018-05-18T09:01:55.853Z,44.37
2018-05-18T09:02:55.133Z,45.39
2018-05-18T09:03:56.032Z,46.59
2018-05-18T09:04:55.382Z,46.08
2018-05-18T09:05:55.115Z,46.23
2018-05-18T09:06:55.112Z,45.55
2018-05-18T09:07:55.143Z,45.00
2018-05-18T09:08:56.228Z,42.50
2018-05-18T09:09:56.233Z,43.26
2018-05-18T09:10:55.319Z,43.52
2018-05-18T09:11:57.351Z,44.05
2018-05-18T09:12:55.581Z,42.19
2018-05-18T09:13:55.972Z,42.19
2018-05-18T09:14:55.756Z,43.29
2018-05-18T09:15:56.595Z,45.94
2018-05-18T09:16:56.090Z,47.49
2018-05-18T09:17:55.496Z,47.85
2018-05-18T09:18:55.853Z,47.72
2018-05-18T09:19:55.437Z,49.17
2018-05-18T09:20:56.732Z,48.38
2018-05-18T09:21:55.491Z,48.54
2018-05-18T09:22:59.509Z,47.24
2018-05-18T09:23:56.301Z,45.55
2018-05-18T09:24:55.351Z,44.76
2018-05-18T09:25:55.627Z,45.39
2018-05-18T09:26:55.379Z,46.42
2018-05-18T09:27:55.481Z,47.46
2018-05-18T09:28:55.464Z,48.54
2018-05-18T09:29:55.366Z,49.27
2018-05-18T09:30:55.487Z,49.27
2018-05-18T09:31:58.865Z,48.79
2018-05-18T09:32:55.406Z,49.24
2018-05-18T09:33:55.573Z,49.69
2018-05-18T09:34:55.499Z,49.27
2018-05-18T09:35:55.630Z,46.55
2018-05-18T09:36:55.641Z,46.45
2018-05-18T09:37:55.485Z,46.15
2018-05-18T09:38:55.614Z,44.56
2018-05-18T09:39:55.789Z,43.62
2018-05-18T09:40:55.505Z,45.20
2018-05-18T09:41:55.712Z,46.08
2018-05-18T09:42:56.366Z,45.67
2018-05-18T09:43:55.692Z,42.58
2018-05-18T09:44:56.364Z,45.79
2018-05-18T09:45:55.621Z,47.12
2018-05-18T09:46:55.581Z,45.17
2018-05-18T09:47:56.451Z,43.57
2018-05-18T09:48:55.915Z,42.12
2018-05-18T09:49:55.895Z,42.87
2018-05-18T09:50:55.940Z,44.42
2018-05-18T09:51:56.572Z,47.77
2018-05-18T09:52:55.811Z,48.08
2018-05-18T09:53:56.052Z,47.29
2018-05-18T09:54:57.140Z,48.16
2018-05-18T09:55:55.910Z,47.24
2018-05-18T09:56:57.329Z,47.77
2018-05-18T09:57:55.955Z,46.76
2018-05-18T09:58:57.094Z,45.26
2018-05-18T09:59:55.993Z,43.74
2018-05-18T10:00:56.244Z,42.99
2018-05-18T10:01:56.191Z,42.72
2018-05-18T10:02:56.030Z,42.25
2018-05-18T10:03:55.893Z,42.41
2018-05-18T10:04:55.751Z,41.71
2018-05-18T10:05:55.855Z,45.10
2018-05-18T10:06:56.023Z,47.99
2018-05-18T10:07:56.293Z,45.26
2018-05-18T10:08:57.384Z,43.49
2018-05-18T10:09:56.061Z,43.10
2018-05-18T10:10:55.988Z,42.91
2018-05-18T10:11:56.037Z,42.72
2018-05-18T10:12:55.938Z,41.66
2018-05-18T10:13:55.990Z,40.71
2018-05-18T10:14:55.913Z,39.67
2018-05-18T10:15:56.028Z,39.09
2018-05-18T10:16:56.218Z,41.05
2018-05-18T10:17:58.913Z,42.00
2018-05-18T10:19:08.865Z,42.77
2018-05-18T10:19:56.299Z,44.76
2018-05-18T10:20:56.171Z,44.68
2018-05-18T10:21:56.103Z,42.99
2018-05-18T10:22:56.067Z,43.74
2018-05-18T10:23:56.169Z,45.53
2018-05-18T10:24:56.134Z,45.14
2018-05-18T10:25:56.113Z,46.15
2018-05-18T10:26:56.306Z,47.65
2018-05-18T10:27:56.197Z,49.00
2018-05-18T10:28:56.340Z,47.22
2018-05-18T10:29:56.224Z,46.47
2018-05-18T10:30:56.214Z,46.37
2018-05-18T10:31:56.227Z,47.39
2018-05-18T10:32:56.230Z,49.79
2018-05-18T10:33:56.208Z,49.96
2018-05-18T10:34:56.267Z,49.82
2018-05-18T10:35:56.245Z,47.36
2018-05-18T10:36:56.345Z,47.34
2018-05-18T10:37:56.366Z,47.10
2018-05-18T10:38:56.226Z,48.52
2018-05-18T10:39:56.264Z,49.36
2018-05-18T10:40:56.477Z,50.42
2018-05-18T10:41:56.317Z,50.81
2018-05-18T10:42:56.494Z,50.99
2018-05-18T10:43:56.324Z,52.03
2018-05-18T10:44:56.321Z,51.96
2018-05-18T10:45:56.325Z,50.27
2018-05-18T10:46:56.437Z,47.77
2018-05-18T10:47:56.531Z,48.61
2018-05-18T10:48:56.390Z,48.83
2018-05-18T10:49:56.569Z,49.15
2018-05-18T10:50:56.556Z,46.42
2018-05-18T10:51:56.515Z,47.19
2018-05-18T10:52:56.697Z,47.60
2018-05-18T10:53:57.450Z,47.46
2018-05-18T10:54:56.427Z,49.65
2018-05-18T10:55:56.504Z,51.26
2018-05-18T10:56:56.523Z,52.10
2018-05-18T10:57:56.488Z,51.91
2018-05-18T10:58:56.801Z,51.35
2018-05-18T10:59:56.507Z,51.19
2018-05-18T11:00:56.774Z,50.35
2018-05-18T11:01:56.503Z,50.32
2018-05-18T11:02:56.564Z,50.99
2018-05-18T11:03:56.526Z,52.12
2018-05-18T11:04:56.484Z,52.70
2018-05-18T11:05:56.623Z,51.45
2018-05-18T11:06:56.616Z,52.44
2018-05-18T11:07:56.836Z,54.08
2018-05-18T11:08:56.517Z,51.67
2018-05-18T11:09:56.561Z,51.26
2018-05-18T11:10:56.652Z,51.53
2018-05-18T11:11:56.771Z,52.29
2018-05-18T11:12:57.717Z,52.58
2018-05-18T11:13:56.760Z,51.84
2018-05-18T11:14:56.819Z,50.87
2018-05-18T11:15:57.218Z,50.04
2018-05-18T11:16:56.871Z,51.67
2018-05-18T11:17:56.747Z,50.61
2018-05-18T11:18:56.941Z,50.51
2018-05-18T11:19:57.083Z,50.68
2018-05-18T11:20:57.000Z,50.81
2018-05-18T11:21:57.619Z,50.51
2018-05-18T11:22:56.904Z,50.10
2018-05-18T11:23:56.724Z,50.66
2018-05-18T11:24:56.699Z,51.23
2018-05-18T11:25:56.677Z,51.48
2018-05-18T11:26:56.735Z,50.81
2018-05-18T11:27:56.837Z,50.30
2018-05-18T11:28:56.668Z,50.76
2018-05-18T11:29:56.744Z,52.87
2018-05-18T11:30:56.761Z,52.68
2018-05-18T11:31:56.760Z,54.22
2018-05-18T11:32:56.753Z,54.22
2018-05-18T11:33:56.757Z,53.54
2018-05-18T11:34:56.716Z,53.38
2018-05-18T11:35:56.785Z,51.74
2018-05-18T11:36:56.816Z,52.61
2018-05-18T11:37:56.785Z,53.11
2018-05-18T11:38:56.814Z,50.81
2018-05-18T11:39:56.785Z,52.39
2018-05-18T11:40:56.801Z,54.19
2018-05-18T11:41:56.836Z,52.97
2018-05-18T11:42:56.775Z,51.91
2018-05-18T11:43:56.870Z,52.77
2018-05-18T11:44:56.866Z,51.55
2018-05-18T11:45:56.851Z,51.38
2018-05-18T11:46:57.006Z,50.81
2018-05-18T11:47:56.891Z,51.96
2018-05-18T11:48:56.915Z,51.57
2018-05-18T11:49:56.808Z,51.33
2018-05-18T11:50:56.884Z,53.06
2018-05-18T11:51:56.807Z,53.16
2018-05-18T11:52:56.887Z,52.89
2018-05-18T11:53:57.145Z,52.42
2018-05-18T11:54:56.950Z,50.87
2018-05-18T11:55:57.031Z,50.90
2018-05-18T11:56:56.908Z,50.04
2018-05-18T11:57:56.946Z,50.23
2018-05-18T11:58:56.877Z,50.32
2018-05-18T11:59:56.883Z,50.42
2018-05-18T12:00:57.331Z,50.04
2018-05-18T12:01:56.953Z,49.72
2018-05-18T12:02:57.541Z,49.65
2018-05-18T12:03:57.140Z,49.65
2018-05-18T12:04:56.996Z,51.09
2018-05-18T12:05:56.999Z,51.48
2018-05-18T12:06:56.987Z,51.38
2018-05-18T12:07:56.897Z,50.97
2018-05-18T12:08:57.039Z,50.59
2018-05-18T12:10:58.945Z,51.17
2018-05-18T12:11:57.133Z,51.35
2018-05-18T12:12:57.472Z,51.33
2018-05-18T12:13:56.957Z,51.31
2018-05-18T12:14:56.976Z,52.55
2018-05-18T12:15:57.385Z,54.38
2018-05-18T12:16:56.954Z,56.14
2018-05-18T12:17:57.110Z,56.23
2018-05-18T12:18:56.936Z,53.54
2018-05-18T12:19:57.051Z,54.28
2018-05-18T12:20:57.115Z,55.24
2018-05-18T12:21:57.055Z,54.45
2018-05-18T12:22:57.149Z,54.25
2018-05-18T12:23:56.971Z,54.96
2018-05-18T12:24:57.014Z,55.18
2018-05-18T12:25:57.080Z,54.22
2018-05-18T12:26:57.476Z,53.92
2018-05-18T12:27:57.092Z,54.31
2018-05-18T12:28:57.069Z,56.04
2018-05-18T12:29:57.014Z,56.23
2018-05-18T12:30:57.185Z,54.69
2018-05-18T12:32:20.993Z,53.09
2018-05-18T12:32:58.023Z,54.14
2018-05-18T12:33:57.002Z,54.72
2018-05-18T12:34:59.693Z,52.83
2018-05-18T12:35:57.021Z,53.59
2018-05-18T12:36:57.005Z,51.84
2018-05-18T12:37:57.478Z,52.97
2018-05-18T12:38:57.012Z,54.47
2018-05-18T12:39:57.156Z,54.67
2018-05-18T12:40:57.157Z,54.47
2018-05-18T12:41:57.606Z,53.52
2018-05-18T12:42:57.003Z,54.77
2018-05-18T12:43:58.193Z,55.44
2018-05-18T12:44:57.116Z,53.90
2018-05-18T12:45:57.278Z,54.47
2018-05-18T12:46:57.182Z,54.64
2018-05-18T12:47:59.246Z,56.85
2018-05-18T12:48:57.397Z,56.01
2018-05-18T12:49:57.467Z,54.77
2018-05-18T12:50:57.576Z,54.89
2018-05-18T12:51:57.266Z,54.22
2018-05-18T12:52:57.384Z,52.87
2018-05-18T12:53:57.432Z,52.58
2018-05-18T12:54:57.174Z,53.92
2018-05-18T12:55:57.268Z,53.45
2018-05-18T12:56:59.981Z,55.66
2018-05-18T12:57:57.302Z,55.15
2018-05-18T12:58:57.208Z,54.50
2018-05-18T12:59:58.348Z,53.42
2018-05-18T13:00:57.256Z,53.45
2018-05-18T13:01:57.130Z,52.48
2018-05-18T13:02:57.410Z,52.55
2018-05-18T13:03:57.352Z,53.90